sensor_id;sensor_type;location;lat;lon;timestamp;temperature;humidity
16283;DHT22;8249;48.708;9.030;2024-02-21T00:01:15;5.70;99.90
16283;DHT22;8249;48.708;9.030;2024-02-21T00:03:42;5.70;99.90
16283;DHT22;8249;48.708;9.030;2024-02-21T00:06:09;5.70;99.90
16283;DHT22;8249;48.708;9.030;2024-02-21T00:08:36;5.80;99.90
16283;DHT22;8249;48.708;9.030;2024-02-21T00:11:03;5.90;99.90
16283;DHT22;8249;48.708;9.030;2024-02-21T00:13:31;5.90;99.90
16283;DHT22;8249;48.708;9.030;2024-02-21T00:16:00;5.90;99.90
16283;DHT22;8249;48.708;9.030;2024-02-21T00:18:27;5.90;99.90
16283;DHT22;8249;48.708;9.030;2024-02-21T00:20:53;5.90;99.90
16283;DHT22;8249;48.708;9.030;2024-02-21T00:23:20;5.90;99.90
16283;DHT22;8249;48.708;9.030;2024-02-21T00:25:47;5.90;99.90
16283;DHT22;8249;48.708;9.030;2024-02-21T00:28:14;5.80;99.90
16283;DHT22;8249;48.708;9.030;2024-02-21T00:30:42;5.80;99.90
16283;DHT22;8249;48.708;9.030;2024-02-21T00:33:09;5.80;99.90
16283;DHT22;8249;48.708;9.030;2024-02-21T00:35:36;5.70;99.90
16283;DHT22;8249;48.708;9.030;2024-02-21T00:38:03;5.70;99.90
16283;DHT22;8249;48.708;9.030;2024-02-21T00:40:30;5.70;99.90
16283;DHT22;8249;48.708;9.030;2024-02-21T00:42:56;5.70;99.90
16283;DHT22;8249;48.708;9.030;2024-02-21T00:45:23;5.70;99.90
16283;DHT22;8249;48.708;9.030;2024-02-21T00:47:51;5.70;99.90
16283;DHT22;8249;48.708;9.030;2024-02-21T00:50:18;5.70;99.90
16283;DHT22;8249;48.708;9.030;2024-02-21T00:52:45;5.70;99.90
16283;DHT22;8249;48.708;9.030;2024-02-21T00:55:12;5.70;99.90
16283;DHT22;8249;48.708;9.030;2024-02-21T00:57:39;5.70;99.90
16283;DHT22;8249;48.708;9.030;2024-02-21T01:00:06;5.70;99.90
16283;DHT22;8249;48.708;9.030;2024-02-21T01:02:33;5.70;99.90
16283;DHT22;8249;48.708;9.030;2024-02-21T01:05:02;5.80;99.90
16283;DHT22;8249;48.708;9.030;2024-02-21T01:07:29;5.70;99.90
16283;DHT22;8249;48.708;9.030;2024-02-21T01:09:56;5.70;99.90
16283;DHT22;8249;48.708;9.030;2024-02-21T01:12:23;5.80;99.90
16283;DHT22;8249;48.708;9.030;2024-02-21T01:14:49;5.80;99.90
16283;DHT22;8249;48.708;9.030;2024-02-21T01:17:16;5.80;99.90
16283;DHT22;8249;48.708;9.030;2024-02-21T01:19:46;5.80;99.90
16283;DHT22;8249;48.708;9.030;2024-02-21T01:22:14;5.80;99.90
16283;DHT22;8249;48.708;9.030;2024-02-21T01:24:41;5.80;99.90
16283;DHT22;8249;48.708;9.030;2024-02-21T01:27:08;5.70;99.90
16283;DHT22;8249;48.708;9.030;2024-02-21T01:29:35;5.70;99.90
16283;DHT22;8249;48.708;9.030;2024-02-21T01:32:02;5.60;99.90
16283;DHT22;8249;48.708;9.030;2024-02-21T01:34:29;5.70;99.90
16283;DHT22;8249;48.708;9.030;2024-02-21T01:36:56;5.70;99.90
16283;DHT22;8249;48.708;9.030;2024-02-21T01:39:24;5.70;99.90
16283;DHT22;8249;48.708;9.030;2024-02-21T01:41:51;5.80;99.90
16283;DHT22;8249;48.708;9.030;2024-02-21T01:44:18;5.80;99.90
16283;DHT22;8249;48.708;9.030;2024-02-21T01:46:45;5.90;99.90
16283;DHT22;8249;48.708;9.030;2024-02-21T01:49:11;5.90;99.90
16283;DHT22;8249;48.708;9.030;2024-02-21T01:51:39;6.00;99.90
16283;DHT22;8249;48.708;9.030;2024-02-21T01:54:06;5.90;99.90
16283;DHT22;8249;48.708;9.030;2024-02-21T01:56:34;5.90;99.90
16283;DHT22;8249;48.708;9.030;2024-02-21T01:59:01;6.00;99.90
16283;DHT22;8249;48.708;9.030;2024-02-21T02:01:29;6.00;99.90
16283;DHT22;8249;48.708;9.030;2024-02-21T02:03:57;6.00;99.90
16283;DHT22;8249;48.708;9.030;2024-02-21T02:06:25;6.00;99.90
16283;DHT22;8249;48.708;9.030;2024-02-21T02:08:52;6.00;99.90
16283;DHT22;8249;48.708;9.030;2024-02-21T02:11:20;6.00;99.90
16283;DHT22;8249;48.708;9.030;2024-02-21T02:13:48;6.00;99.90
16283;DHT22;8249;48.708;9.030;2024-02-21T02:16:15;6.00;99.90
16283;DHT22;8249;48.708;9.030;2024-02-21T02:18:42;6.00;99.90
16283;DHT22;8249;48.708;9.030;2024-02-21T02:21:13;6.10;99.90
16283;DHT22;8249;48.708;9.030;2024-02-21T02:23:43;6.10;99.90
16283;DHT22;8249;48.708;9.030;2024-02-21T02:26:10;6.10;99.90
16283;DHT22;8249;48.708;9.030;2024-02-21T02:28:37;6.10;99.90
16283;DHT22;8249;48.708;9.030;2024-02-21T02:31:03;6.10;99.90
16283;DHT22;8249;48.708;9.030;2024-02-21T02:33:30;6.10;99.90
16283;DHT22;8249;48.708;9.030;2024-02-21T02:35:57;6.10;99.90
16283;DHT22;8249;48.708;9.030;2024-02-21T02:38:24;6.10;99.90
16283;DHT22;8249;48.708;9.030;2024-02-21T02:40:52;6.10;99.90
16283;DHT22;8249;48.708;9.030;2024-02-21T02:43:19;6.10;99.90
16283;DHT22;8249;48.708;9.030;2024-02-21T02:45:46;6.10;99.90
16283;DHT22;8249;48.708;9.030;2024-02-21T02:48:13;6.10;99.90
16283;DHT22;8249;48.708;9.030;2024-02-21T02:50:39;6.10;99.90
16283;DHT22;8249;48.708;9.030;2024-02-21T02:53:06;6.30;99.90
16283;DHT22;8249;48.708;9.030;2024-02-21T02:55:33;6.10;99.90
16283;DHT22;8249;48.708;9.030;2024-02-21T02:58:02;6.20;99.90
16283;DHT22;8249;48.708;9.030;2024-02-21T03:00:29;6.20;99.90
16283;DHT22;8249;48.708;9.030;2024-02-21T03:02:56;6.10;99.90
16283;DHT22;8249;48.708;9.030;2024-02-21T03:05:23;6.10;99.90
16283;DHT22;8249;48.708;9.030;2024-02-21T03:07:49;6.10;99.90
16283;DHT22;8249;48.708;9.030;2024-02-21T03:10:16;6.10;99.90
16283;DHT22;8249;48.708;9.030;2024-02-21T03:12:43;6.10;99.90
16283;DHT22;8249;48.708;9.030;2024-02-21T03:15:12;6.10;99.90
16283;DHT22;8249;48.708;9.030;2024-02-21T03:17:39;6.10;99.90
16283;DHT22;8249;48.708;9.030;2024-02-21T03:20:07;6.10;99.90
16283;DHT22;8249;48.708;9.030;2024-02-21T03:22:35;6.10;99.90
16283;DHT22;8249;48.708;9.030;2024-02-21T03:25:02;6.10;99.90
16283;DHT22;8249;48.708;9.030;2024-02-21T03:27:29;6.10;99.90
16283;DHT22;8249;48.708;9.030;2024-02-21T03:29:56;6.00;99.90
16283;DHT22;8249;48.708;9.030;2024-02-21T03:32:24;6.00;99.90
16283;DHT22;8249;48.708;9.030;2024-02-21T03:34:51;6.00;99.90
16283;DHT22;8249;48.708;9.030;2024-02-21T03:37:18;6.00;99.90
16283;DHT22;8249;48.708;9.030;2024-02-21T03:39:45;5.90;99.90
16283;DHT22;8249;48.708;9.030;2024-02-21T03:42:12;5.90;99.90
16283;DHT22;8249;48.708;9.030;2024-02-21T03:44:39;5.90;99.90
16283;DHT22;8249;48.708;9.030;2024-02-21T03:47:05;5.90;99.90
16283;DHT22;8249;48.708;9.030;2024-02-21T03:49:37;6.00;99.90
16283;DHT22;8249;48.708;9.030;2024-02-21T03:52:04;5.80;99.90
16283;DHT22;8249;48.708;9.030;2024-02-21T03:54:31;5.80;99.90
16283;DHT22;8249;48.708;9.030;2024-02-21T03:56:58;5.80;99.90
16283;DHT22;8249;48.708;9.030;2024-02-21T03:59:24;5.80;99.90
16283;DHT22;8249;48.708;9.030;2024-02-21T04:01:51;5.80;99.90
16283;DHT22;8249;48.708;9.030;2024-02-21T04:04:19;5.70;99.90
16283;DHT22;8249;48.708;9.030;2024-02-21T04:06:47;5.80;99.90
16283;DHT22;8249;48.708;9.030;2024-02-21T04:09:14;5.70;99.90
16283;DHT22;8249;48.708;9.030;2024-02-21T04:11:41;5.70;99.90
16283;DHT22;8249;48.708;9.030;2024-02-21T04:14:08;5.60;99.90
16283;DHT22;8249;48.708;9.030;2024-02-21T04:16:36;5.60;99.90
16283;DHT22;8249;48.708;9.030;2024-02-21T04:19:03;5.50;99.90
16283;DHT22;8249;48.708;9.030;2024-02-21T04:21:30;5.40;99.90
16283;DHT22;8249;48.708;9.030;2024-02-21T04:23:58;5.40;99.90
16283;DHT22;8249;48.708;9.030;2024-02-21T04:26:25;5.40;99.90
16283;DHT22;8249;48.708;9.030;2024-02-21T04:28:52;5.30;99.90
16283;DHT22;8249;48.708;9.030;2024-02-21T04:31:19;5.30;99.90
16283;DHT22;8249;48.708;9.030;2024-02-21T04:33:45;5.30;99.90
16283;DHT22;8249;48.708;9.030;2024-02-21T04:36:12;5.30;99.90
16283;DHT22;8249;48.708;9.030;2024-02-21T04:38:40;5.40;99.90
16283;DHT22;8249;48.708;9.030;2024-02-21T04:41:08;5.40;99.90
16283;DHT22;8249;48.708;9.030;2024-02-21T04:43:35;5.40;99.90
16283;DHT22;8249;48.708;9.030;2024-02-21T04:46:02;5.50;99.90
16283;DHT22;8249;48.708;9.030;2024-02-21T04:48:28;5.50;99.90
16283;DHT22;8249;48.708;9.030;2024-02-21T04:50:55;5.50;99.90
16283;DHT22;8249;48.708;9.030;2024-02-21T04:53:22;5.50;99.90
16283;DHT22;8249;48.708;9.030;2024-02-21T04:55:49;5.50;99.90
16283;DHT22;8249;48.708;9.030;2024-02-21T04:58:17;5.40;99.90
16283;DHT22;8249;48.708;9.030;2024-02-21T05:00:44;5.30;99.90
16283;DHT22;8249;48.708;9.030;2024-02-21T05:03:14;5.30;99.90
16283;DHT22;8249;48.708;9.030;2024-02-21T05:05:40;5.20;99.90
16283;DHT22;8249;48.708;9.030;2024-02-21T05:08:07;5.20;99.90
16283;DHT22;8249;48.708;9.030;2024-02-21T05:10:36;5.10;99.90
16283;DHT22;8249;48.708;9.030;2024-02-21T05:13:03;5.00;99.90
16283;DHT22;8249;48.708;9.030;2024-02-21T05:15:31;5.00;99.90
16283;DHT22;8249;48.708;9.030;2024-02-21T05:17:58;5.00;99.90
16283;DHT22;8249;48.708;9.030;2024-02-21T05:20:24;5.00;99.90
16283;DHT22;8249;48.708;9.030;2024-02-21T05:22:51;5.20;99.90
16283;DHT22;8249;48.708;9.030;2024-02-21T05:25:18;5.10;99.90
16283;DHT22;8249;48.708;9.030;2024-02-21T05:27:45;5.10;99.90
16283;DHT22;8249;48.708;9.030;2024-02-21T05:30:15;5.20;99.90
16283;DHT22;8249;48.708;9.030;2024-02-21T05:32:43;5.10;99.90
16283;DHT22;8249;48.708;9.030;2024-02-21T05:35:12;5.10;99.90
16283;DHT22;8249;48.708;9.030;2024-02-21T05:37:39;5.10;99.90
16283;DHT22;8249;48.708;9.030;2024-02-21T05:40:07;5.10;99.90
16283;DHT22;8249;48.708;9.030;2024-02-21T05:42:34;5.00;99.90
16283;DHT22;8249;48.708;9.030;2024-02-21T05:45:01;5.00;99.90
16283;DHT22;8249;48.708;9.030;2024-02-21T05:47:28;5.00;99.90
16283;DHT22;8249;48.708;9.030;2024-02-21T05:49:57;5.00;99.90
16283;DHT22;8249;48.708;9.030;2024-02-21T05:52:23;4.90;99.90
16283;DHT22;8249;48.708;9.030;2024-02-21T05:54:50;4.90;99.90
16283;DHT22;8249;48.708;9.030;2024-02-21T05:57:17;4.80;99.90
16283;DHT22;8249;48.708;9.030;2024-02-21T05:59:44;4.70;99.90
16283;DHT22;8249;48.708;9.030;2024-02-21T06:02:11;4.60;99.90
16283;DHT22;8249;48.708;9.030;2024-02-21T06:04:38;4.60;99.90
16283;DHT22;8249;48.708;9.030;2024-02-21T06:07:07;4.50;99.90
16283;DHT22;8249;48.708;9.030;2024-02-21T06:09:34;4.40;99.90
16283;DHT22;8249;48.708;9.030;2024-02-21T06:12:01;4.40;99.90
16283;DHT22;8249;48.708;9.030;2024-02-21T06:14:27;4.30;99.90
16283;DHT22;8249;48.708;9.030;2024-02-21T06:16:55;4.30;99.90
16283;DHT22;8249;48.708;9.030;2024-02-21T06:19:22;4.20;99.90
16283;DHT22;8249;48.708;9.030;2024-02-21T06:21:49;4.20;99.90
16283;DHT22;8249;48.708;9.030;2024-02-21T06:24:17;4.20;99.90
16283;DHT22;8249;48.708;9.030;2024-02-21T06:26:44;4.10;99.90
16283;DHT22;8249;48.708;9.030;2024-02-21T06:29:11;4.10;99.90
16283;DHT22;8249;48.708;9.030;2024-02-21T06:31:39;4.10;99.90
16283;DHT22;8249;48.708;9.030;2024-02-21T06:34:07;4.10;99.90
16283;DHT22;8249;48.708;9.030;2024-02-21T06:36:34;4.00;99.90
16283;DHT22;8249;48.708;9.030;2024-02-21T06:39:00;4.00;99.90
16283;DHT22;8249;48.708;9.030;2024-02-21T06:41:31;4.00;99.90
16283;DHT22;8249;48.708;9.030;2024-02-21T06:43:59;4.00;99.90
16283;DHT22;8249;48.708;9.030;2024-02-21T06:46:27;4.00;99.90
16283;DHT22;8249;48.708;9.030;2024-02-21T06:48:54;4.00;99.90
16283;DHT22;8249;48.708;9.030;2024-02-21T06:51:22;4.00;99.90
16283;DHT22;8249;48.708;9.030;2024-02-21T06:53:49;4.10;99.90
16283;DHT22;8249;48.708;9.030;2024-02-21T06:56:16;4.20;99.90
16283;DHT22;8249;48.708;9.030;2024-02-21T06:58:45;4.50;99.90
16283;DHT22;8249;48.708;9.030;2024-02-21T07:01:11;4.40;99.90
16283;DHT22;8249;48.708;9.030;2024-02-21T07:03:38;4.50;99.90
16283;DHT22;8249;48.708;9.030;2024-02-21T07:06:05;4.60;99.90
16283;DHT22;8249;48.708;9.030;2024-02-21T07:08:32;4.60;99.90
16283;DHT22;8249;48.708;9.030;2024-02-21T07:10:59;4.80;99.90
16283;DHT22;8249;48.708;9.030;2024-02-21T07:13:26;4.80;99.90
16283;DHT22;8249;48.708;9.030;2024-02-21T07:15:54;4.90;99.90
16283;DHT22;8249;48.708;9.030;2024-02-21T07:18:20;5.10;99.90
16283;DHT22;8249;48.708;9.030;2024-02-21T07:20:47;5.20;99.90
16283;DHT22;8249;48.708;9.030;2024-02-21T07:23:14;5.20;99.90
16283;DHT22;8249;48.708;9.030;2024-02-21T07:25:41;5.40;99.90
16283;DHT22;8249;48.708;9.030;2024-02-21T07:28:08;5.50;99.90
16283;DHT22;8249;48.708;9.030;2024-02-21T07:30:35;5.50;99.90
16283;DHT22;8249;48.708;9.030;2024-02-21T07:33:04;5.70;99.90
16283;DHT22;8249;48.708;9.030;2024-02-21T07:35:32;6.00;99.90
16283;DHT22;8249;48.708;9.030;2024-02-21T07:37:59;6.20;99.90
16283;DHT22;8249;48.708;9.030;2024-02-21T07:40:26;6.30;99.90
16283;DHT22;8249;48.708;9.030;2024-02-21T07:42:53;6.40;99.90
16283;DHT22;8249;48.708;9.030;2024-02-21T07:45:20;6.60;99.90
16283;DHT22;8249;48.708;9.030;2024-02-21T07:47:49;6.60;99.90
16283;DHT22;8249;48.708;9.030;2024-02-21T07:50:17;6.70;99.90
16283;DHT22;8249;48.708;9.030;2024-02-21T07:52:44;6.80;99.90
16283;DHT22;8249;48.708;9.030;2024-02-21T07:55:11;6.80;99.90
16283;DHT22;8249;48.708;9.030;2024-02-21T07:57:38;6.90;99.90
16283;DHT22;8249;48.708;9.030;2024-02-21T08:00:06;7.00;99.90
16283;DHT22;8249;48.708;9.030;2024-02-21T08:02:38;7.10;99.90
16283;DHT22;8249;48.708;9.030;2024-02-21T08:05:05;7.20;99.90
16283;DHT22;8249;48.708;9.030;2024-02-21T08:07:33;7.20;99.90
16283;DHT22;8249;48.708;9.030;2024-02-21T08:10:00;7.20;99.90
16283;DHT22;8249;48.708;9.030;2024-02-21T08:12:27;7.30;99.90
16283;DHT22;8249;48.708;9.030;2024-02-21T08:14:54;7.30;99.90
16283;DHT22;8249;48.708;9.030;2024-02-21T08:17:20;7.40;99.90
16283;DHT22;8249;48.708;9.030;2024-02-21T08:19:47;7.50;99.90
16283;DHT22;8249;48.708;9.030;2024-02-21T08:22:15;7.60;99.90
16283;DHT22;8249;48.708;9.030;2024-02-21T08:24:43;7.60;99.90
16283;DHT22;8249;48.708;9.030;2024-02-21T08:27:10;7.60;99.90
16283;DHT22;8249;48.708;9.030;2024-02-21T08:29:36;7.80;99.90
16283;DHT22;8249;48.708;9.030;2024-02-21T08:32:04;8.00;99.90
16283;DHT22;8249;48.708;9.030;2024-02-21T08:34:30;8.10;99.90
16283;DHT22;8249;48.708;9.030;2024-02-21T08:36:59;8.40;99.90
16283;DHT22;8249;48.708;9.030;2024-02-21T08:39:26;8.40;99.90
16283;DHT22;8249;48.708;9.030;2024-02-21T08:41:56;8.60;99.90
16283;DHT22;8249;48.708;9.030;2024-02-21T08:44:24;8.50;99.90
16283;DHT22;8249;48.708;9.030;2024-02-21T08:46:51;8.50;99.90
16283;DHT22;8249;48.708;9.030;2024-02-21T08:49:18;8.50;99.90
16283;DHT22;8249;48.708;9.030;2024-02-21T08:51:45;8.50;99.90
16283;DHT22;8249;48.708;9.030;2024-02-21T08:54:12;8.50;99.90
16283;DHT22;8249;48.708;9.030;2024-02-21T08:56:39;8.70;99.90
16283;DHT22;8249;48.708;9.030;2024-02-21T08:59:07;8.60;99.90
16283;DHT22;8249;48.708;9.030;2024-02-21T09:01:34;8.70;99.90
16283;DHT22;8249;48.708;9.030;2024-02-21T09:04:01;8.80;99.90
16283;DHT22;8249;48.708;9.030;2024-02-21T09:06:28;8.90;99.90
16283;DHT22;8249;48.708;9.030;2024-02-21T09:08:56;8.90;99.90
16283;DHT22;8249;48.708;9.030;2024-02-21T09:11:23;9.00;99.90
16283;DHT22;8249;48.708;9.030;2024-02-21T09:13:50;9.10;99.90
16283;DHT22;8249;48.708;9.030;2024-02-21T09:16:18;9.20;99.90
16283;DHT22;8249;48.708;9.030;2024-02-21T09:18:45;9.20;99.90
16283;DHT22;8249;48.708;9.030;2024-02-21T09:21:12;9.20;99.90
16283;DHT22;8249;48.708;9.030;2024-02-21T09:23:39;9.10;99.90
16283;DHT22;8249;48.708;9.030;2024-02-21T09:26:06;9.30;99.90
16283;DHT22;8249;48.708;9.030;2024-02-21T09:28:35;9.40;99.90
16283;DHT22;8249;48.708;9.030;2024-02-21T09:31:02;9.50;99.90
16283;DHT22;8249;48.708;9.030;2024-02-21T09:33:30;9.70;99.90
16283;DHT22;8249;48.708;9.030;2024-02-21T09:35:57;10.20;99.90
16283;DHT22;8249;48.708;9.030;2024-02-21T09:38:24;10.40;99.90
16283;DHT22;8249;48.708;9.030;2024-02-21T09:40:54;10.50;99.90
16283;DHT22;8249;48.708;9.030;2024-02-21T09:43:25;10.70;99.90
16283;DHT22;8249;48.708;9.030;2024-02-21T09:45:54;10.80;99.90
16283;DHT22;8249;48.708;9.030;2024-02-21T09:48:33;10.80;99.90
16283;DHT22;8249;48.708;9.030;2024-02-21T09:51:03;10.80;99.90
16283;DHT22;8249;48.708;9.030;2024-02-21T09:53:32;10.90;99.90
16283;DHT22;8249;48.708;9.030;2024-02-21T09:56:00;11.40;99.90
16283;DHT22;8249;48.708;9.030;2024-02-21T09:58:29;11.80;99.90
16283;DHT22;8249;48.708;9.030;2024-02-21T10:00:56;12.30;99.90
16283;DHT22;8249;48.708;9.030;2024-02-21T10:03:26;12.50;99.90
16283;DHT22;8249;48.708;9.030;2024-02-21T10:05:54;12.90;99.90
16283;DHT22;8249;48.708;9.030;2024-02-21T10:08:21;13.20;99.90
16283;DHT22;8249;48.708;9.030;2024-02-21T10:10:48;13.00;99.90
16283;DHT22;8249;48.708;9.030;2024-02-21T10:13:25;13.10;99.90
16283;DHT22;8249;48.708;9.030;2024-02-21T10:16:03;13.30;99.90
16283;DHT22;8249;48.708;9.030;2024-02-21T10:18:30;13.60;99.90
16283;DHT22;8249;48.708;9.030;2024-02-21T10:21:02;13.60;99.90
16283;DHT22;8249;48.708;9.030;2024-02-21T10:23:41;13.60;99.90
16283;DHT22;8249;48.708;9.030;2024-02-21T10:26:07;13.40;99.90
16283;DHT22;8249;48.708;9.030;2024-02-21T10:28:34;13.10;99.90
16283;DHT22;8249;48.708;9.030;2024-02-21T10:31:01;13.10;99.90
16283;DHT22;8249;48.708;9.030;2024-02-21T10:33:28;13.30;99.90
16283;DHT22;8249;48.708;9.030;2024-02-21T10:36:08;13.40;99.90
16283;DHT22;8249;48.708;9.030;2024-02-21T10:38:36;13.30;99.90
16283;DHT22;8249;48.708;9.030;2024-02-21T10:41:04;13.10;99.90
16283;DHT22;8249;48.708;9.030;2024-02-21T10:43:37;12.90;99.90
16283;DHT22;8249;48.708;9.030;2024-02-21T10:46:05;12.80;99.90
16283;DHT22;8249;48.708;9.030;2024-02-21T10:48:41;12.80;99.90
16283;DHT22;8249;48.708;9.030;2024-02-21T10:51:17;12.80;99.90
16283;DHT22;8249;48.708;9.030;2024-02-21T10:53:47;12.90;99.90
16283;DHT22;8249;48.708;9.030;2024-02-21T10:56:22;13.00;99.90
16283;DHT22;8249;48.708;9.030;2024-02-21T10:58:50;13.00;99.90
16283;DHT22;8249;48.708;9.030;2024-02-21T11:01:18;13.00;99.90
16283;DHT22;8249;48.708;9.030;2024-02-21T11:03:47;13.20;99.90
16283;DHT22;8249;48.708;9.030;2024-02-21T11:06:18;13.10;99.90
16283;DHT22;8249;48.708;9.030;2024-02-21T11:08:47;13.20;99.90
16283;DHT22;8249;48.708;9.030;2024-02-21T11:11:15;13.30;99.90
16283;DHT22;8249;48.708;9.030;2024-02-21T11:13:44;13.30;99.90
16283;DHT22;8249;48.708;9.030;2024-02-21T11:16:21;13.30;99.90
16283;DHT22;8249;48.708;9.030;2024-02-21T11:18:48;13.30;99.90
16283;DHT22;8249;48.708;9.030;2024-02-21T11:21:16;13.10;99.90
16283;DHT22;8249;48.708;9.030;2024-02-21T11:23:43;13.00;99.90
16283;DHT22;8249;48.708;9.030;2024-02-21T11:28:56;12.90;99.90
16283;DHT22;8249;48.708;9.030;2024-02-21T11:31:23;12.90;99.90
16283;DHT22;8249;48.708;9.030;2024-02-21T11:33:51;13.10;99.90
16283;DHT22;8249;48.708;9.030;2024-02-21T11:36:25;13.10;99.90
16283;DHT22;8249;48.708;9.030;2024-02-21T11:38:52;13.10;99.90
16283;DHT22;8249;48.708;9.030;2024-02-21T11:41:19;13.00;99.90
16283;DHT22;8249;48.708;9.030;2024-02-21T11:43:48;13.00;99.90
16283;DHT22;8249;48.708;9.030;2024-02-21T11:46:15;12.90;99.90
16283;DHT22;8249;48.708;9.030;2024-02-21T11:48:42;12.80;99.90
16283;DHT22;8249;48.708;9.030;2024-02-21T11:51:10;12.90;99.90
16283;DHT22;8249;48.708;9.030;2024-02-21T11:53:38;12.80;99.90
16283;DHT22;8249;48.708;9.030;2024-02-21T11:56:06;12.90;99.90
16283;DHT22;8249;48.708;9.030;2024-02-21T11:58:33;12.90;99.90
16283;DHT22;8249;48.708;9.030;2024-02-21T12:01:00;12.80;99.90
16283;DHT22;8249;48.708;9.030;2024-02-21T12:03:28;12.90;99.90
16283;DHT22;8249;48.708;9.030;2024-02-21T12:05:55;13.20;99.90
16283;DHT22;8249;48.708;9.030;2024-02-21T12:08:24;13.10;99.90
16283;DHT22;8249;48.708;9.030;2024-02-21T12:10:52;13.50;99.90
16283;DHT22;8249;48.708;9.030;2024-02-21T12:13:22;13.70;99.90
16283;DHT22;8249;48.708;9.030;2024-02-21T12:15:49;13.70;99.90
16283;DHT22;8249;48.708;9.030;2024-02-21T12:18:16;13.80;99.90
16283;DHT22;8249;48.708;9.030;2024-02-21T12:20:43;14.10;99.90
16283;DHT22;8249;48.708;9.030;2024-02-21T12:23:11;14.50;99.90
16283;DHT22;8249;48.708;9.030;2024-02-21T12:25:39;14.20;99.90
16283;DHT22;8249;48.708;9.030;2024-02-21T12:28:07;14.30;99.90
16283;DHT22;8249;48.708;9.030;2024-02-21T12:30:34;14.20;99.90
16283;DHT22;8249;48.708;9.030;2024-02-21T12:33:03;14.10;99.50
16283;DHT22;8249;48.708;9.030;2024-02-21T12:35:30;14.20;99.90
16283;DHT22;8249;48.708;9.030;2024-02-21T12:37:58;14.00;99.90
16283;DHT22;8249;48.708;9.030;2024-02-21T12:40:27;13.80;99.80
16283;DHT22;8249;48.708;9.030;2024-02-21T12:42:58;13.80;99.80
16283;DHT22;8249;48.708;9.030;2024-02-21T12:45:27;13.90;99.90
16283;DHT22;8249;48.708;9.030;2024-02-21T12:47:54;14.00;99.90
16283;DHT22;8249;48.708;9.030;2024-02-21T12:50:20;14.10;99.10
16283;DHT22;8249;48.708;9.030;2024-02-21T12:52:48;13.90;98.40
16283;DHT22;8249;48.708;9.030;2024-02-21T12:55:16;14.10;98.90
16283;DHT22;8249;48.708;9.030;2024-02-21T12:57:43;14.10;98.90
16283;DHT22;8249;48.708;9.030;2024-02-21T13:00:11;14.10;98.70
16283;DHT22;8249;48.708;9.030;2024-02-21T13:02:39;14.00;97.10
16283;DHT22;8249;48.708;9.030;2024-02-21T13:05:07;13.90;97.00
16283;DHT22;8249;48.708;9.030;2024-02-21T13:07:34;13.80;97.20
16283;DHT22;8249;48.708;9.030;2024-02-21T13:10:01;13.70;97.80
16283;DHT22;8249;48.708;9.030;2024-02-21T13:12:29;13.80;97.50
16283;DHT22;8249;48.708;9.030;2024-02-21T13:14:56;13.80;97.50
16283;DHT22;8249;48.708;9.030;2024-02-21T13:17:22;13.60;97.40
16283;DHT22;8249;48.708;9.030;2024-02-21T13:19:51;13.60;98.00
16283;DHT22;8249;48.708;9.030;2024-02-21T13:22:18;13.70;98.00
16283;DHT22;8249;48.708;9.030;2024-02-21T13:24:45;13.80;97.90
16283;DHT22;8249;48.708;9.030;2024-02-21T13:27:12;13.90;97.00
16283;DHT22;8249;48.708;9.030;2024-02-21T13:29:39;13.80;96.90
16283;DHT22;8249;48.708;9.030;2024-02-21T13:32:06;14.00;97.30
16283;DHT22;8249;48.708;9.030;2024-02-21T13:34:33;14.00;97.10
16283;DHT22;8249;48.708;9.030;2024-02-21T13:37:02;14.00;96.20
16283;DHT22;8249;48.708;9.030;2024-02-21T13:39:30;13.60;96.20
16283;DHT22;8249;48.708;9.030;2024-02-21T13:42:00;13.60;96.30
16283;DHT22;8249;48.708;9.030;2024-02-21T13:44:27;13.60;97.10
16283;DHT22;8249;48.708;9.030;2024-02-21T13:46:53;13.50;97.00
16283;DHT22;8249;48.708;9.030;2024-02-21T13:49:20;13.40;97.00
16283;DHT22;8249;48.708;9.030;2024-02-21T13:51:47;13.30;96.60
16283;DHT22;8249;48.708;9.030;2024-02-21T13:54:16;13.30;97.10
16283;DHT22;8249;48.708;9.030;2024-02-21T13:56:44;13.30;96.40
16283;DHT22;8249;48.708;9.030;2024-02-21T13:59:12;13.30;96.40
16283;DHT22;8249;48.708;9.030;2024-02-21T14:01:40;13.30;96.30
16283;DHT22;8249;48.708;9.030;2024-02-21T14:04:06;13.20;96.60
16283;DHT22;8249;48.708;9.030;2024-02-21T14:06:33;13.00;96.10
16283;DHT22;8249;48.708;9.030;2024-02-21T14:09:00;13.00;96.30
16283;DHT22;8249;48.708;9.030;2024-02-21T14:11:30;12.90;96.30
16283;DHT22;8249;48.708;9.030;2024-02-21T14:13:57;12.90;96.10
16283;DHT22;8249;48.708;9.030;2024-02-21T14:16:23;12.80;95.90
16283;DHT22;8249;48.708;9.030;2024-02-21T14:18:50;12.70;95.70
16283;DHT22;8249;48.708;9.030;2024-02-21T14:21:17;12.70;95.70
16283;DHT22;8249;48.708;9.030;2024-02-21T14:23:45;12.60;96.00
16283;DHT22;8249;48.708;9.030;2024-02-21T14:26:12;12.70;96.20
16283;DHT22;8249;48.708;9.030;2024-02-21T14:28:41;12.70;95.10
16283;DHT22;8249;48.708;9.030;2024-02-21T14:31:08;12.60;95.40
16283;DHT22;8249;48.708;9.030;2024-02-21T14:33:36;12.60;95.70
16283;DHT22;8249;48.708;9.030;2024-02-21T14:36:03;12.70;95.20
16283;DHT22;8249;48.708;9.030;2024-02-21T14:38:30;12.60;95.00
16283;DHT22;8249;48.708;9.030;2024-02-21T14:40:57;12.60;95.90
16283;DHT22;8249;48.708;9.030;2024-02-21T14:43:23;12.60;96.40
16283;DHT22;8249;48.708;9.030;2024-02-21T14:45:53;12.60;96.40
16283;DHT22;8249;48.708;9.030;2024-02-21T14:48:20;12.50;96.30
16283;DHT22;8249;48.708;9.030;2024-02-21T14:50:47;12.40;96.70
16283;DHT22;8249;48.708;9.030;2024-02-21T14:53:15;12.40;96.60
16283;DHT22;8249;48.708;9.030;2024-02-21T14:55:42;12.30;96.40
16283;DHT22;8249;48.708;9.030;2024-02-21T14:58:09;12.30;96.90
16283;DHT22;8249;48.708;9.030;2024-02-21T15:00:36;12.30;97.20
16283;DHT22;8249;48.708;9.030;2024-02-21T15:03:05;12.20;97.40
16283;DHT22;8249;48.708;9.030;2024-02-21T15:05:32;12.10;97.90
16283;DHT22;8249;48.708;9.030;2024-02-21T15:08:00;12.10;98.40
16283;DHT22;8249;48.708;9.030;2024-02-21T15:10:27;12.10;98.50
16283;DHT22;8249;48.708;9.030;2024-02-21T15:12:54;12.10;98.40
16283;DHT22;8249;48.708;9.030;2024-02-21T15:15:21;12.00;99.20
16283;DHT22;8249;48.708;9.030;2024-02-21T15:17:48;12.10;99.10
16283;DHT22;8249;48.708;9.030;2024-02-21T15:20:17;12.10;99.30
16283;DHT22;8249;48.708;9.030;2024-02-21T15:22:44;12.10;99.00
16283;DHT22;8249;48.708;9.030;2024-02-21T15:25:11;12.20;98.70
16283;DHT22;8249;48.708;9.030;2024-02-21T15:27:41;12.20;98.50
16283;DHT22;8249;48.708;9.030;2024-02-21T15:30:09;12.20;98.50
16283;DHT22;8249;48.708;9.030;2024-02-21T15:32:36;12.30;98.80
16283;DHT22;8249;48.708;9.030;2024-02-21T15:35:03;12.30;99.50
16283;DHT22;8249;48.708;9.030;2024-02-21T15:37:33;12.20;99.90
16283;DHT22;8249;48.708;9.030;2024-02-21T15:40:00;12.10;99.90
16283;DHT22;8249;48.708;9.030;2024-02-21T15:42:26;12.00;99.90
16283;DHT22;8249;48.708;9.030;2024-02-21T15:44:53;12.00;99.90
16283;DHT22;8249;48.708;9.030;2024-02-21T15:47:20;11.90;99.90
16283;DHT22;8249;48.708;9.030;2024-02-21T15:49:49;11.90;99.90
16283;DHT22;8249;48.708;9.030;2024-02-21T15:52:16;11.90;99.90
16283;DHT22;8249;48.708;9.030;2024-02-21T15:54:44;11.80;99.90
16283;DHT22;8249;48.708;9.030;2024-02-21T15:57:11;11.80;99.90
16283;DHT22;8249;48.708;9.030;2024-02-21T15:59:38;11.80;99.90